sensor_id;sensor_type;location;lat;lon;timestamp;pressure;altitude;pressure_sealevel;temperature;humidity
21273;BME280;36726;52.328;10.552;2023-04-09T00:01:13;101704.63;;;6.18;100.00
21273;BME280;36726;52.328;10.552;2023-04-09T00:03:39;101701.75;;;6.12;100.00
21273;BME280;36726;52.328;10.552;2023-04-09T00:06:10;101696.97;;;6.05;100.00
21273;BME280;36726;52.328;10.552;2023-04-09T00:08:36;101697.50;;;5.98;100.00
21273;BME280;36726;52.328;10.552;2023-04-09T00:11:03;101706.91;;;5.93;100.00
21273;BME280;36726;52.328;10.552;2023-04-09T00:13:31;101701.25;;;5.85;100.00
21273;BME280;36726;52.328;10.552;2023-04-09T00:16:05;101699.19;;;5.80;100.00
21273;BME280;36726;52.328;10.552;2023-04-09T00:18:32;101698.22;;;5.78;100.00
21273;BME280;36726;52.328;10.552;2023-04-09T00:20:58;101700.94;;;5.79;100.00
21273;BME280;36726;52.328;10.552;2023-04-09T00:23:26;101695.03;;;5.83;100.00
21273;BME280;36726;52.328;10.552;2023-04-09T00:25:53;101703.16;;;5.88;100.00
21273;BME280;36726;52.328;10.552;2023-04-09T00:28:20;101707.75;;;5.92;100.00
21273;BME280;36726;52.328;10.552;2023-04-09T00:30:47;101698.34;;;5.97;100.00
21273;BME280;36726;52.328;10.552;2023-04-09T00:33:13;101698.50;;;6.00;100.00
21273;BME280;36726;52.328;10.552;2023-04-09T00:35:43;101692.31;;;5.99;100.00
21273;BME280;36726;52.328;10.552;2023-04-09T00:38:11;101698.50;;;6.00;100.00
21273;BME280;36726;52.328;10.552;2023-04-09T00:40:37;101701.88;;;5.97;100.00
21273;BME280;36726;52.328;10.552;2023-04-09T00:43:04;101698.94;;;5.91;100.00
21273;BME280;36726;52.328;10.552;2023-04-09T00:45:30;101690.03;;;5.88;100.00
21273;BME280;36726;52.328;10.552;2023-04-09T00:47:58;101697.56;;;5.82;100.00
21273;BME280;36726;52.328;10.552;2023-04-09T00:50:24;101694.72;;;5.77;100.00
21273;BME280;36726;52.328;10.552;2023-04-09T00:52:51;101699.72;;;5.73;100.00
21273;BME280;36726;52.328;10.552;2023-04-09T00:55:20;101696.94;;;5.70;100.00
21273;BME280;36726;52.328;10.552;2023-04-09T00:57:46;101704.81;;;5.70;100.00
21273;BME280;36726;52.328;10.552;2023-04-09T01:00:14;101693.34;;;5.68;100.00
21273;BME280;36726;52.328;10.552;2023-04-09T01:02:42;101699.44;;;5.67;100.00
21273;BME280;36726;52.328;10.552;2023-04-09T01:05:10;101687.97;;;5.65;100.00
21273;BME280;36726;52.328;10.552;2023-04-09T01:10:46;101691.56;;;5.67;100.00
21273;BME280;36726;52.328;10.552;2023-04-09T01:13:29;101689.00;;;5.68;100.00
21273;BME280;36726;52.328;10.552;2023-04-09T01:16:00;101686.44;;;5.70;100.00
21273;BME280;36726;52.328;10.552;2023-04-09T01:18:38;101689.88;;;5.69;100.00
21273;BME280;36726;52.328;10.552;2023-04-09T01:21:16;101679.31;;;5.67;100.00
21273;BME280;36726;52.328;10.552;2023-04-09T01:24:08;101691.69;;;5.70;100.00
21273;BME280;36726;52.328;10.552;2023-04-09T01:29:19;101686.13;;;5.64;100.00
21273;BME280;36726;52.328;10.552;2023-04-09T01:31:47;101675.63;;;5.64;100.00
21273;BME280;36726;52.328;10.552;2023-04-09T01:34:18;101674.66;;;5.62;100.00
21273;BME280;36726;52.328;10.552;2023-04-09T01:36:50;101667.69;;;5.62;100.00
21273;BME280;36726;52.328;10.552;2023-04-09T01:39:17;101680.00;;;5.63;100.00
21273;BME280;36726;52.328;10.552;2023-04-09T01:41:45;101674.59;;;5.60;100.00
21273;BME280;36726;52.328;10.552;2023-04-09T01:44:14;101678.13;;;5.61;100.00
21273;BME280;36726;52.328;10.552;2023-04-09T01:46:42;101673.69;;;5.60;100.00
21273;BME280;36726;52.328;10.552;2023-04-09T01:49:09;101677.13;;;5.59;100.00
21273;BME280;36726;52.328;10.552;2023-04-09T01:51:37;101684.03;;;5.57;100.00
21273;BME280;36726;52.328;10.552;2023-04-09T01:54:04;101683.06;;;5.55;100.00
21273;BME280;36726;52.328;10.552;2023-04-09T01:56:44;101681.34;;;5.55;100.00
21273;BME280;36726;52.328;10.552;2023-04-09T01:59:11;101675.34;;;5.58;100.00
21273;BME280;36726;52.328;10.552;2023-04-09T02:01:46;101675.50;;;5.61;100.00
21273;BME280;36726;52.328;10.552;2023-04-09T02:07:05;101686.66;;;5.57;100.00
21273;BME280;36726;52.328;10.552;2023-04-09T02:09:35;101684.88;;;5.56;100.00
21273;BME280;36726;52.328;10.552;2023-04-09T02:12:04;101685.84;;;5.58;100.00
21273;BME280;36726;52.328;10.552;2023-04-09T02:14:32;101692.97;;;5.60;100.00
21273;BME280;36726;52.328;10.552;2023-04-09T02:17:00;101695.66;;;5.62;100.00
21273;BME280;36726;52.328;10.552;2023-04-09T02:19:38;101689.59;;;5.63;100.00
21273;BME280;36726;52.328;10.552;2023-04-09T02:22:05;101696.81;;;5.67;100.00
21273;BME280;36726;52.328;10.552;2023-04-09T02:24:31;101695.13;;;5.69;100.00
21273;BME280;36726;52.328;10.552;2023-04-09T02:26:58;101692.50;;;5.69;100.00
21273;BME280;36726;52.328;10.552;2023-04-09T02:29:24;101699.34;;;5.65;100.00
21273;BME280;36726;52.328;10.552;2023-04-09T02:31:52;101690.41;;;5.62;100.00
21273;BME280;36726;52.328;10.552;2023-04-09T02:34:19;101685.16;;;5.62;100.00
21273;BME280;36726;52.328;10.552;2023-04-09T02:36:47;101689.53;;;5.61;100.00
21273;BME280;36726;52.328;10.552;2023-04-09T02:39:13;101693.94;;;5.62;100.00
21273;BME280;36726;52.328;10.552;2023-04-09T02:41:40;101693.94;;;5.62;100.00
21273;BME280;36726;52.328;10.552;2023-04-09T02:44:07;101689.53;;;5.61;100.00
21273;BME280;36726;52.328;10.552;2023-04-09T02:46:34;101682.53;;;5.62;100.00
21273;BME280;36726;52.328;10.552;2023-04-09T02:49:01;101679.16;;;5.64;100.00
21273;BME280;36726;52.328;10.552;2023-04-09T02:51:27;101682.69;;;5.65;100.00
21273;BME280;36726;52.328;10.552;2023-04-09T02:53:54;101672.03;;;5.62;100.00
21273;BME280;36726;52.328;10.552;2023-04-09T02:56:21;101680.59;;;5.58;100.00
21273;BME280;36726;52.328;10.552;2023-04-09T02:58:48;101674.38;;;5.56;100.00
21273;BME280;36726;52.328;10.552;2023-04-09T03:01:19;101677.00;;;5.56;100.00
21273;BME280;36726;52.328;10.552;2023-04-09T03:03:48;101669.19;;;5.57;100.00
21273;BME280;36726;52.328;10.552;2023-04-09T03:06:16;101669.13;;;5.56;100.00
21273;BME280;36726;52.328;10.552;2023-04-09T03:08:46;101676.09;;;5.55;100.00
21273;BME280;36726;52.328;10.552;2023-04-09T03:11:12;101675.69;;;5.48;100.00
21273;BME280;36726;52.328;10.552;2023-04-09T03:13:39;101670.06;;;5.40;100.00
21273;BME280;36726;52.328;10.552;2023-04-09T03:16:06;101673.25;;;5.35;100.00
21273;BME280;36726;52.328;10.552;2023-04-09T03:18:33;101670.50;;;5.32;100.00
21273;BME280;36726;52.328;10.552;2023-04-09T03:21:03;101671.34;;;5.31;100.00
21273;BME280;36726;52.328;10.552;2023-04-09T03:23:31;101673.78;;;5.27;100.00
21273;BME280;36726;52.328;10.552;2023-04-09T03:26:04;101669.38;;;5.26;100.00
21273;BME280;36726;52.328;10.552;2023-04-09T03:28:48;101673.56;;;5.23;100.00
21273;BME280;36726;52.328;10.552;2023-04-09T03:31:15;101677.75;;;5.19;100.00
21273;BME280;36726;52.328;10.552;2023-04-09T03:33:43;101678.47;;;5.17;100.00
21273;BME280;36726;52.328;10.552;2023-04-09T03:36:10;101676.63;;;5.14;100.00
21273;BME280;36726;52.328;10.552;2023-04-09T03:38:51;101670.97;;;5.07;100.00
21273;BME280;36726;52.328;10.552;2023-04-09T03:41:40;101667.94;;;4.99;100.00
21273;BME280;36726;52.328;10.552;2023-04-09T03:44:10;101674.66;;;4.94;100.00
21273;BME280;36726;52.328;10.552;2023-04-09T03:46:53;101675.31;;;4.90;100.00
21273;BME280;36726;52.328;10.552;2023-04-09T03:49:21;101675.31;;;4.90;100.00
21273;BME280;36726;52.328;10.552;2023-04-09T03:51:48;101678.03;;;4.92;100.00
21273;BME280;36726;52.328;10.552;2023-04-09T03:54:15;101675.47;;;4.93;100.00
21273;BME280;36726;52.328;10.552;2023-04-09T03:56:43;101678.09;;;4.93;100.00
21273;BME280;36726;52.328;10.552;2023-04-09T03:59:12;101682.69;;;4.97;100.00
21273;BME280;36726;52.328;10.552;2023-04-09T04:01:42;101682.03;;;5.01;100.00
21273;BME280;36726;52.328;10.552;2023-04-09T04:04:09;101675.97;;;5.02;100.00
21273;BME280;36726;52.328;10.552;2023-04-09T04:06:46;101677.00;;;5.06;100.00
21273;BME280;36726;52.328;10.552;2023-04-09T04:09:31;101680.69;;;5.09;100.00
21273;BME280;36726;52.328;10.552;2023-04-09T04:12:08;101680.03;;;5.13;100.00
21273;BME280;36726;52.328;10.552;2023-04-09T04:14:49;101695.19;;;5.19;100.00
21273;BME280;36726;52.328;10.552;2023-04-09T04:17:25;101680.50;;;5.22;100.00
21273;BME280;36726;52.328;10.552;2023-04-09T04:19:53;101690.16;;;5.23;100.00
21273;BME280;36726;52.328;10.552;2023-04-09T04:22:21;101685.19;;;5.28;100.00
21273;BME280;36726;52.328;10.552;2023-04-09T04:24:53;101677.63;;;5.34;100.00
21273;BME280;36726;52.328;10.552;2023-04-09T04:27:21;101683.09;;;5.39;100.00
21273;BME280;36726;52.328;10.552;2023-04-09T04:29:48;101681.59;;;5.44;100.00
21273;BME280;36726;52.328;10.552;2023-04-09T04:32:35;101676.53;;;5.47;100.00
21273;BME280;36726;52.328;10.552;2023-04-09T04:35:06;101683.72;;;5.51;100.00
21273;BME280;36726;52.328;10.552;2023-04-09T04:37:33;101683.97;;;5.55;100.00
21273;BME280;36726;52.328;10.552;2023-04-09T04:40:01;101681.66;;;5.61;100.00
21273;BME280;36726;52.328;10.552;2023-04-09T04:42:30;101680.16;;;5.66;100.00
21273;BME280;36726;52.328;10.552;2023-04-09T04:45:00;101686.59;;;5.73;100.00
21273;BME280;36726;52.328;10.552;2023-04-09T04:47:41;101679.84;;;5.78;100.00
21273;BME280;36726;52.328;10.552;2023-04-09T04:50:08;101680.09;;;5.82;100.00
21273;BME280;36726;52.328;10.552;2023-04-09T04:52:49;101675.00;;;5.85;100.00
21273;BME280;36726;52.328;10.552;2023-04-09T04:55:16;101676.06;;;5.89;100.00
21273;BME280;36726;52.328;10.552;2023-04-09T04:57:43;101676.22;;;5.92;100.00
21273;BME280;36726;52.328;10.552;2023-04-09T05:00:12;101677.22;;;5.94;100.00
21273;BME280;36726;52.328;10.552;2023-04-09T05:02:41;101683.56;;;5.99;100.00
21273;BME280;36726;52.328;10.552;2023-04-09T05:05:16;101682.13;;;6.05;100.00
21273;BME280;36726;52.328;10.552;2023-04-09T05:07:49;101683.34;;;6.12;100.00
21273;BME280;36726;52.328;10.552;2023-04-09T05:10:15;101680.19;;;6.19;100.00
21273;BME280;36726;52.328;10.552;2023-04-09T05:12:43;101676.84;;;6.23;100.00
21273;BME280;36726;52.328;10.552;2023-04-09T05:15:16;101684.13;;;6.28;100.00
21273;BME280;36726;52.328;10.552;2023-04-09T05:17:44;101686.81;;;6.30;100.00
21273;BME280;36726;52.328;10.552;2023-04-09T05:20:13;101689.63;;;6.33;100.00
21273;BME280;36726;52.328;10.552;2023-04-09T05:22:53;101684.56;;;6.38;100.00
21273;BME280;36726;52.328;10.552;2023-04-09T05:25:26;101684.78;;;6.42;100.00
21273;BME280;36726;52.328;10.552;2023-04-09T05:27:53;101687.63;;;6.47;100.00
21273;BME280;36726;52.328;10.552;2023-04-09T05:30:19;101687.84;;;6.51;100.00
21273;BME280;36726;52.328;10.552;2023-04-09T05:32:46;101682.78;;;6.56;100.00
21273;BME280;36726;52.328;10.552;2023-04-09T05:35:14;101697.94;;;6.61;100.00
21273;BME280;36726;52.328;10.552;2023-04-09T05:37:44;101688.53;;;6.66;100.00
21273;BME280;36726;52.328;10.552;2023-04-09T05:40:11;101688.03;;;6.73;100.00
21273;BME280;36726;52.328;10.552;2023-04-09T05:42:40;101689.19;;;6.80;100.00
21273;BME280;36726;52.328;10.552;2023-04-09T05:45:16;101690.34;;;6.86;100.00
21273;BME280;36726;52.328;10.552;2023-04-09T05:47:49;101693.28;;;6.92;100.00
21273;BME280;36726;52.328;10.552;2023-04-09T05:50:19;101694.53;;;7.00;100.00
21273;BME280;36726;52.328;10.552;2023-04-09T05:52:48;101690.56;;;7.10;100.00
21273;BME280;36726;52.328;10.552;2023-04-09T05:55:15;101693.53;;;7.17;100.00
21273;BME280;36726;52.328;10.552;2023-04-09T05:57:58;101684.16;;;7.24;100.00
21273;BME280;36726;52.328;10.552;2023-04-09T06:00:25;101692.38;;;7.31;100.00
21273;BME280;36726;52.328;10.552;2023-04-09T06:02:51;101692.78;;;7.41;100.00
21273;BME280;36726;52.328;10.552;2023-04-09T06:05:18;101686.25;;;7.52;100.00
21273;BME280;36726;52.328;10.552;2023-04-09T06:07:46;101694.53;;;7.61;100.00
21273;BME280;36726;52.328;10.552;2023-04-09T06:10:12;101697.50;;;7.68;100.00
21273;BME280;36726;52.328;10.552;2023-04-09T06:12:39;101700.47;;;7.76;100.00
21273;BME280;36726;52.328;10.552;2023-04-09T06:15:07;101701.56;;;7.81;100.00
21273;BME280;36726;52.328;10.552;2023-04-09T06:17:34;101703.50;;;7.85;100.00
21273;BME280;36726;52.328;10.552;2023-04-09T06:20:01;101704.44;;;7.87;100.00
21273;BME280;36726;52.328;10.552;2023-04-09T06:22:28;101709.78;;;7.88;100.00
21273;BME280;36726;52.328;10.552;2023-04-09T06:24:54;101710.81;;;7.92;100.00
21273;BME280;36726;52.328;10.552;2023-04-09T06:27:21;101715.22;;;7.93;100.00
21273;BME280;36726;52.328;10.552;2023-04-09T06:29:48;101728.53;;;7.96;100.00
21273;BME280;36726;52.328;10.552;2023-04-09T06:32:15;101725.19;;;8.00;100.00
21273;BME280;36726;52.328;10.552;2023-04-09T06:34:42;101725.31;;;8.03;100.00
21273;BME280;36726;52.328;10.552;2023-04-09T06:37:08;101729.75;;;8.04;100.00
21273;BME280;36726;52.328;10.552;2023-04-09T06:39:35;101727.25;;;8.07;100.00
21273;BME280;36726;52.328;10.552;2023-04-09T06:42:03;101727.25;;;8.07;100.00
21273;BME280;36726;52.328;10.552;2023-04-09T06:44:37;101723.88;;;8.11;100.00
21273;BME280;36726;52.328;10.552;2023-04-09T06:47:03;101724.84;;;8.13;100.00
21273;BME280;36726;52.328;10.552;2023-04-09T06:49:30;101726.84;;;8.18;100.00
21273;BME280;36726;52.328;10.552;2023-04-09T06:51:57;101723.50;;;8.22;100.00
21273;BME280;36726;52.328;10.552;2023-04-09T06:54:23;101721.00;;;8.25;100.00
21273;BME280;36726;52.328;10.552;2023-04-09T06:56:50;101723.00;;;8.31;100.00
21273;BME280;36726;52.328;10.552;2023-04-09T06:59:17;101720.63;;;8.37;100.00
21273;BME280;36726;52.328;10.552;2023-04-09T07:01:44;101726.97;;;8.42;100.00
21273;BME280;36726;52.328;10.552;2023-04-09T07:04:10;101723.63;;;8.46;100.00
21273;BME280;36726;52.328;10.552;2023-04-09T07:06:37;101733.44;;;8.50;100.00
21273;BME280;36726;52.328;10.552;2023-04-09T07:09:06;101731.03;;;8.56;100.00
21273;BME280;36726;52.328;10.552;2023-04-09T07:11:32;101733.00;;;8.62;100.00
21273;BME280;36726;52.328;10.552;2023-04-09T07:13:59;101736.72;;;8.67;100.00
21273;BME280;36726;52.328;10.552;2023-04-09T07:16:26;101736.91;;;8.71;100.00
21273;BME280;36726;52.328;10.552;2023-04-09T07:18:52;101742.28;;;8.74;99.74
21273;BME280;36726;52.328;10.552;2023-04-09T07:21:19;101737.16;;;8.77;99.52
21273;BME280;36726;52.328;10.552;2023-04-09T07:23:45;101731.94;;;8.79;99.41
21273;BME280;36726;52.328;10.552;2023-04-09T07:26:14;101732.09;;;8.83;99.44
21273;BME280;36726;52.328;10.552;2023-04-09T07:28:41;101738.38;;;8.87;99.15
21273;BME280;36726;52.328;10.552;2023-04-09T07:31:07;101738.53;;;8.90;98.91
21273;BME280;36726;52.328;10.552;2023-04-09T07:33:35;101732.59;;;8.95;98.86
21273;BME280;36726;52.328;10.552;2023-04-09T07:36:01;101741.50;;;8.99;98.77
21273;BME280;36726;52.328;10.552;2023-04-09T07:38:28;101734.59;;;9.02;97.85
21273;BME280;36726;52.328;10.552;2023-04-09T07:40:56;101734.53;;;9.01;97.43
21273;BME280;36726;52.328;10.552;2023-04-09T07:43:22;101730.22;;;9.03;96.93
21273;BME280;36726;52.328;10.552;2023-04-09T07:45:50;101726.75;;;9.04;96.30
21273;BME280;36726;52.328;10.552;2023-04-09T07:48:16;101732.06;;;9.05;96.78
21273;BME280;36726;52.328;10.552;2023-04-09T07:50:43;101733.13;;;9.10;96.10
21273;BME280;36726;52.328;10.552;2023-04-09T07:53:13;101729.69;;;9.11;95.62
21273;BME280;36726;52.328;10.552;2023-04-09T07:55:40;101739.44;;;9.14;95.48
21273;BME280;36726;52.328;10.552;2023-04-09T07:58:06;101736.84;;;9.15;95.02
21273;BME280;36726;52.328;10.552;2023-04-09T08:00:33;101740.44;;;9.17;94.26
21273;BME280;36726;52.328;10.552;2023-04-09T08:02:59;101738.88;;;9.22;94.96
21273;BME280;36726;52.328;10.552;2023-04-09T08:05:27;101739.75;;;9.23;93.16
21273;BME280;36726;52.328;10.552;2023-04-09T08:07:54;101739.81;;;9.24;92.54
21273;BME280;36726;52.328;10.552;2023-04-09T08:10:20;101742.59;;;9.27;92.92
21273;BME280;36726;52.328;10.552;2023-04-09T08:12:47;101743.47;;;9.28;92.83
21273;BME280;36726;52.328;10.552;2023-04-09T08:15:14;101752.38;;;9.31;93.02
21273;BME280;36726;52.328;10.552;2023-04-09T08:17:40;101749.88;;;9.34;93.25
21273;BME280;36726;52.328;10.552;2023-04-09T08:20:07;101740.44;;;9.41;92.01
21273;BME280;36726;52.328;10.552;2023-04-09T08:22:34;101740.72;;;9.49;92.36
21273;BME280;36726;52.328;10.552;2023-04-09T08:25:00;101745.31;;;9.54;91.34
21273;BME280;36726;52.328;10.552;2023-04-09T08:27:28;101740.31;;;9.62;91.73
21273;BME280;36726;52.328;10.552;2023-04-09T08:29:54;101744.78;;;9.64;91.18
21273;BME280;36726;52.328;10.552;2023-04-09T08:32:22;101745.78;;;9.68;90.63
21273;BME280;36726;52.328;10.552;2023-04-09T08:34:49;101740.72;;;9.74;90.21
21273;BME280;36726;52.328;10.552;2023-04-09T08:37:15;101728.56;;;9.79;89.85
21273;BME280;36726;52.328;10.552;2023-04-09T08:39:42;101733.97;;;9.82;89.46
21273;BME280;36726;52.328;10.552;2023-04-09T08:42:10;101735.84;;;9.86;90.37
21273;BME280;36726;52.328;10.552;2023-04-09T08:44:37;101731.75;;;9.94;90.20
21273;BME280;36726;52.328;10.552;2023-04-09T08:47:07;101739.88;;;10.00;89.36
21273;BME280;36726;52.328;10.552;2023-04-09T08:49:39;101736.72;;;10.10;89.62
21273;BME280;36726;52.328;10.552;2023-04-09T08:52:08;101738.84;;;10.20;89.22
21273;BME280;36726;52.328;10.552;2023-04-09T08:54:35;101740.00;;;10.29;89.86
21273;BME280;36726;52.328;10.552;2023-04-09T08:57:04;101745.44;;;10.32;87.17
21273;BME280;36726;52.328;10.552;2023-04-09T08:59:31;101745.56;;;10.37;87.38
21273;BME280;36726;52.328;10.552;2023-04-09T09:02:06;101737.66;;;10.38;86.49
21273;BME280;36726;52.328;10.552;2023-04-09T09:04:44;101740.34;;;10.40;85.76
21273;BME280;36726;52.328;10.552;2023-04-09T09:07:12;101746.72;;;10.45;85.25
21273;BME280;36726;52.328;10.552;2023-04-09T09:09:58;101745.84;;;10.46;84.94
21273;BME280;36726;52.328;10.552;2023-04-09T09:12:38;101740.56;;;10.46;85.06
21273;BME280;36726;52.328;10.552;2023-04-09T09:15:26;101737.88;;;10.44;85.30
21273;BME280;36726;52.328;10.552;2023-04-09T09:17:58;101742.25;;;10.44;85.48
21273;BME280;36726;52.328;10.552;2023-04-09T09:20:25;101743.28;;;10.49;84.13
21273;BME280;36726;52.328;10.552;2023-04-09T09:22:54;101738.19;;;10.55;84.01
21273;BME280;36726;52.328;10.552;2023-04-09T09:25:21;101738.41;;;10.61;83.98
21273;BME280;36726;52.328;10.552;2023-04-09T09:27:52;101730.63;;;10.67;82.59
21273;BME280;36726;52.328;10.552;2023-04-09T09:30:24;101738.69;;;10.70;83.64
21273;BME280;36726;52.328;10.552;2023-04-09T09:33:03;101728.38;;;10.79;83.61
21273;BME280;36726;52.328;10.552;2023-04-09T09:35:45;101737.75;;;10.98;83.14
21273;BME280;36726;52.328;10.552;2023-04-09T09:38:13;101733.94;;;11.18;82.17
21273;BME280;36726;52.328;10.552;2023-04-09T09:40:42;101740.59;;;11.33;80.02
21273;BME280;36726;52.328;10.552;2023-04-09T09:43:09;101731.97;;;11.40;79.68
21273;BME280;36726;52.328;10.552;2023-04-09T09:45:37;101734.94;;;11.52;79.24
21273;BME280;36726;52.328;10.552;2023-04-09T09:48:04;101734.69;;;11.75;79.86
21273;BME280;36726;52.328;10.552;2023-04-09T09:50:34;101731.59;;;11.91;79.77
21273;BME280;36726;52.328;10.552;2023-04-09T09:53:05;101731.16;;;12.08;77.85
21273;BME280;36726;52.328;10.552;2023-04-09T09:55:37;101732.69;;;12.34;77.31
21273;BME280;36726;52.328;10.552;2023-04-09T09:58:15;101740.13;;;12.49;76.57
21273;BME280;36726;52.328;10.552;2023-04-09T10:00:43;101737.81;;;12.64;75.24
21273;BME280;36726;52.328;10.552;2023-04-09T10:03:22;101727.59;;;12.82;75.05
21273;BME280;36726;52.328;10.552;2023-04-09T10:05:50;101723.72;;;13.05;75.46
21273;BME280;36726;52.328;10.552;2023-04-09T10:08:20;101731.50;;;12.98;70.67
21273;BME280;36726;52.328;10.552;2023-04-09T10:10:47;101728.69;;;12.90;70.64
21273;BME280;36726;52.328;10.552;2023-04-09T10:13:24;101730.47;;;12.91;69.26
21273;BME280;36726;52.328;10.552;2023-04-09T10:15:52;101737.91;;;13.06;70.05
21273;BME280;36726;52.328;10.552;2023-04-09T10:18:19;101729.09;;;13.08;66.53
21273;BME280;36726;52.328;10.552;2023-04-09T10:20:58;101725.56;;;13.09;67.80
21273;BME280;36726;52.328;10.552;2023-04-09T10:23:39;101722.94;;;13.11;68.89
21273;BME280;36726;52.328;10.552;2023-04-09T10:26:07;101720.78;;;12.95;69.20
21273;BME280;36726;52.328;10.552;2023-04-09T10:28:36;101718.56;;;12.73;68.92
21273;BME280;36726;52.328;10.552;2023-04-09T10:31:06;101717.09;;;12.48;69.56
21273;BME280;36726;52.328;10.552;2023-04-09T10:33:35;101721.41;;;12.43;70.26
21273;BME280;36726;52.328;10.552;2023-04-09T10:36:04;101710.72;;;12.40;69.63
21273;BME280;36726;52.328;10.552;2023-04-09T10:38:36;101700.31;;;12.49;68.91
21273;BME280;36726;52.328;10.552;2023-04-09T10:41:24;101699.28;;;12.44;67.37
21273;BME280;36726;52.328;10.552;2023-04-09T10:43:54;101695.59;;;12.36;68.41
21273;BME280;36726;52.328;10.552;2023-04-09T10:46:35;101691.72;;;12.22;67.47
21273;BME280;36726;52.328;10.552;2023-04-09T10:51:39;101693.44;;;12.20;67.87
21273;BME280;36726;52.328;10.552;2023-04-09T10:59:38;101693.34;;;12.54;68.59
21273;BME280;36726;52.328;10.552;2023-04-09T11:02:08;101685.81;;;12.72;67.38
21273;BME280;36726;52.328;10.552;2023-04-09T11:04:42;101688.72;;;12.84;68.30
21273;BME280;36726;52.328;10.552;2023-04-09T11:07:14;101674.88;;;13.00;66.22
21273;BME280;36726;52.328;10.552;2023-04-09T11:09:43;101677.88;;;13.14;66.86
21273;BME280;36726;52.328;10.552;2023-04-09T11:12:12;101665.75;;;13.29;65.68
21273;BME280;36726;52.328;10.552;2023-04-09T11:14:39;101669.66;;;13.46;64.93
21273;BME280;36726;52.328;10.552;2023-04-09T11:17:05;101664.66;;;13.65;64.67
21273;BME280;36726;52.328;10.552;2023-04-09T11:19:33;101662.16;;;13.74;64.09
21273;BME280;36726;52.328;10.552;2023-04-09T11:21:59;101670.38;;;13.87;63.34
21273;BME280;36726;52.328;10.552;2023-04-09T11:24:26;101666.19;;;14.03;62.39
21273;BME280;36726;52.328;10.552;2023-04-09T11:27:04;101665.63;;;14.22;61.25
21273;BME280;36726;52.328;10.552;2023-04-09T11:29:33;101665.78;;;14.31;61.24
21273;BME280;36726;52.328;10.552;2023-04-09T11:32:00;101662.53;;;14.51;61.71
21273;BME280;36726;52.328;10.552;2023-04-09T11:34:27;101653.91;;;14.68;61.99
21273;BME280;36726;52.328;10.552;2023-04-09T11:36:54;101660.31;;;14.82;60.69
21273;BME280;36726;52.328;10.552;2023-04-09T11:39:22;101655.13;;;14.94;60.37
21273;BME280;36726;52.328;10.552;2023-04-09T11:41:48;101655.22;;;15.01;60.12
21273;BME280;36726;52.328;10.552;2023-04-09T11:44:15;101653.53;;;15.09;58.13
21273;BME280;36726;52.328;10.552;2023-04-09T11:46:42;101649.09;;;15.11;57.55
21273;BME280;36726;52.328;10.552;2023-04-09T11:49:09;101647.34;;;15.10;58.31
21273;BME280;36726;52.328;10.552;2023-04-09T11:51:35;101654.22;;;14.93;58.17
21273;BME280;36726;52.328;10.552;2023-04-09T11:54:02;101657.56;;;14.77;57.68
21273;BME280;36726;52.328;10.552;2023-04-09T11:56:30;101650.03;;;14.46;54.91
21273;BME280;36726;52.328;10.552;2023-04-09T11:58:57;101653.41;;;14.31;56.98
21273;BME280;36726;52.328;10.552;2023-04-09T12:01:30;101654.97;;;14.20;57.47
21273;BME280;36726;52.328;10.552;2023-04-09T12:03:58;101648.00;;;14.27;57.81
21273;BME280;36726;52.328;10.552;2023-04-09T12:06:26;101642.09;;;14.47;56.97
21273;BME280;36726;52.328;10.552;2023-04-09T12:08:56;101650.22;;;14.58;56.89
21273;BME280;36726;52.328;10.552;2023-04-09T12:11:28;101646.75;;;14.65;57.41
21273;BME280;36726;52.328;10.552;2023-04-09T12:13:59;101645.81;;;14.62;56.63
21273;BME280;36726;52.328;10.552;2023-04-09T12:16:29;101641.41;;;14.62;56.79
21273;BME280;36726;52.328;10.552;2023-04-09T12:19:07;101634.31;;;14.64;55.13
21273;BME280;36726;52.328;10.552;2023-04-09T12:22:03;101634.28;;;14.63;56.27
21273;BME280;36726;52.328;10.552;2023-04-09T12:24:30;101634.22;;;14.57;55.72
21273;BME280;36726;52.328;10.552;2023-04-09T12:26:57;101632.38;;;14.51;55.17
21273;BME280;36726;52.328;10.552;2023-04-09T12:29:23;101625.22;;;14.47;56.06
21273;BME280;36726;52.328;10.552;2023-04-09T12:31:51;101634.13;;;14.49;55.91
21273;BME280;36726;52.328;10.552;2023-04-09T12:34:19;101629.78;;;14.57;55.93
21273;BME280;36726;52.328;10.552;2023-04-09T12:36:46;101630.78;;;14.65;55.40
21273;BME280;36726;52.328;10.552;2023-04-09T12:39:13;101634.59;;;14.84;56.12
21273;BME280;36726;52.328;10.552;2023-04-09T12:41:41;101622.22;;;14.90;56.07
21273;BME280;36726;52.328;10.552;2023-04-09T12:44:08;101625.72;;;14.86;55.14
21273;BME280;36726;52.328;10.552;2023-04-09T12:46:35;101620.19;;;14.70;54.62
21273;BME280;36726;52.328;10.552;2023-04-09T12:49:02;101622.78;;;14.64;55.57
21273;BME280;36726;52.328;10.552;2023-04-09T12:51:29;101620.22;;;14.71;54.03
21273;BME280;36726;52.328;10.552;2023-04-09T12:53:56;101620.16;;;14.68;53.92
21273;BME280;36726;52.328;10.552;2023-04-09T12:56:22;101615.91;;;14.82;54.14
21273;BME280;36726;52.328;10.552;2023-04-09T12:58:50;101611.69;;;14.99;54.68
21273;BME280;36726;52.328;10.552;2023-04-09T13:01:17;101611.78;;;15.08;54.65
21273;BME280;36726;52.328;10.552;2023-04-09T13:03:44;101603.03;;;15.20;54.86
21273;BME280;36726;52.328;10.552;2023-04-09T13:06:11;101610.97;;;15.18;54.28
21273;BME280;36726;52.328;10.552;2023-04-09T13:08:37;101605.66;;;15.18;54.91